This is the latest recevied weather packets stored in our database for station/object WX4FUN-13. If no packets are shown the sender has not sent any weather packets the latest 10 day(s).
| Time | Temp. | Humidity | Pressure | Rain* | Wind** | Luminosity | Snow |
|---|---|---|---|---|---|---|---|
| 1777633209 | 5° C | 88% | 1011.9 hPa | 0 mm | - | 55 W/m² | - |
| 1777632609 | 5° C | 88% | 1011.7 hPa | 0 mm | - | 35 W/m² | - |
| 1777632008 | 5° C | 88% | 1011.6 hPa | 0 mm | - | 29 W/m² | - |
| 1777631409 | 5° C | 89% | 1011.4 hPa | 0 mm | - | 27 W/m² | - |
| 1777630809 | 4.44° C | 89% | 1011.3 hPa | 0 mm | - | 18 W/m² | - |
| 1777630197 | 4.44° C | 89% | 1011.2 hPa | 0 mm | - | 12 W/m² | - |
| 1777629597 | 4.44° C | 89% | 1011.1 hPa | 0 mm | - | 5 W/m² | - |
| 1777628996 | 4.44° C | 89% | 1011 hPa | 0 mm | - | 3 W/m² | - |
| 1777628396 | 4.44° C | 88% | 1010.9 hPa | 0 mm | - | 0 W/m² | - |
| 1777627796 | 4.44° C | 86% | 1010.8 hPa | 0 mm | - | 0 W/m² | - |
| 1777627195 | 5° C | 84% | 1010.7 hPa | 0 mm | - | 0 W/m² | - |
| 1777626581 | 5.56° C | 82% | 1010.6 hPa | 0 mm | - | 0 W/m² | - |
| 1777625982 | 5.56° C | 81% | 1010.4 hPa | 0 mm | - | 0 W/m² | - |
| 1777625380 | 6.11° C | 79% | 1010.5 hPa | 0 mm | - | 0 W/m² | - |
| 1777624781 | 6.67° C | 78% | 1010.5 hPa | 0 mm | - | 0 W/m² | - |
| 1777624166 | 6.67° C | 78% | 1010.5 hPa | 0 mm | - | 0 W/m² | - |
| 1777623565 | 6.67° C | 78% | 1010.5 hPa | 0 mm | - | 0 W/m² | - |
| 1777622968 | 6.11° C | 80% | 1010.5 hPa | 0 mm | - | 0 W/m² | - |
| 1777622367 | 5.56° C | 82% | 1010.6 hPa | 0 mm | - | 0 W/m² | - |
| 1777621767 | 4.44° C | 89% | 1010.4 hPa | 0 mm | - | 0 W/m² | - |
| 1777621167 | 4.44° C | 89% | 1010.4 hPa | 0 mm | - | 0 W/m² | - |
| 1777620568 | 5° C | 88% | 1010.4 hPa | 0 mm | - | 0 W/m² | - |
| 1777619952 | 5° C | 87% | 1010.3 hPa | 0 mm | - | 0 W/m² | - |
| 1777619352 | 5.56° C | 85% | 1010.3 hPa | 0 mm | - | 0 W/m² | - |
| 1777618752 | 5.56° C | 84% | 1010.3 hPa | 0 mm | - | 0 W/m² | - |
* Rain latest hour (hover to see other rain measurements)
** Current wind speed in m/s (hover to see current wind gust speed)